Flight Track Log - Related Links

Times and Time Zones

All times are in EDT time to prevent confusion due to time zone crossing. See the NASA817 flight status page for this flight to view local times or setup timezone preferences in your user account.

Time Position Orientation Groundspeed Altitude Reporting Facility
EDT Latitude Longitude Course Direction KTS MPH feet Rate Location/Type
Mon 12:43:34 PM 29.6258 -95.1628 66° East 161 185 600  Level Houston Center
Mon 12:44:42 PM 29.6461 -95.1100 66° East 206 237 1,400 635 Climbing Houston Center
Mon 12:45:18 PM 29.6500 -95.0786 82° East 217 250 1,700 545 Climbing Houston Center
Mon 12:45:37 PM 29.6592 -95.0481 71° East 232 267 1,900 194 Climbing Houston Center
Mon 12:46:20 PM 29.6711 -95.0078 71° East 230 265 1,900  Level Houston Center
Mon 12:46:38 PM 29.6794 -94.9736 74° East 254 292 1,900  Level Houston Center
Mon 12:47:22 PM 29.6978 -94.9175 69° East 242 278 1,900  Level Houston Center
Mon 12:47:46 PM 29.7072 -94.8906 68° East 237 273 1,900  Level Houston Center
Mon 12:48:24 PM 29.7242 -94.8489 65° Northeast 240 276 1,900  Level Houston Center
Mon 12:48:47 PM 29.7364 -94.8219 62° Northeast 232 267 1,900  Level Houston Center
Mon 12:49:26 PM 29.7550 -94.7833 61° Northeast 236 272 1,900  Level Houston Center
Mon 12:49:54 PM 29.7714 -94.7478 62° Northeast 238 274 1,900 -97 Level Houston Center
Mon 12:50:28 PM 29.7942 -94.7244 42° Northeast 257 296 1,800 -321 Descending Houston Center
Mon 12:50:50 PM 29.8231 -94.7389 337° Northwest 266 306 1,600 -290 Descending Houston Center
Mon 12:51:30 PM 29.8294 -94.7814 280° West 264 304 1,500 -98 Descending Houston Center
Mon 12:51:51 PM 29.8050 -94.8133 229° Southwest 253 291 1,500  Level Houston Center
Mon 12:52:32 PM 29.7942 -94.8492 251° West 258 297 1,500  Level Houston Center
Mon 12:52:46 PM 29.7928 -94.8847 267° West 240 276 1,500  Level Houston Center
Mon 12:53:34 PM 29.7914 -94.9428 268° West 249 287 1,500  Level Houston Center
Mon 12:53:59 PM 29.7892 -94.9792 266° West 250 288 1,500  Level Houston Center
Mon 12:54:36 PM 29.7869 -95.0228 267° West 250 288 1,500  Level Houston Center
Mon 12:54:55 PM 29.7833 -95.0519 262° West 256 295 1,500  Level Houston Center
Mon 12:55:38 PM 29.7825 -95.1028 269° West 252 290 1,500  Level Houston Center
Mon 12:55:56 PM 29.7789 -95.1369 263° West 247 284 1,500  Level Houston Center
Mon 12:56:40 PM 29.7792 -95.1808 270° West 250 288 1,500  Level Houston Center
Mon 12:56:51 PM 29.7772 -95.2094 266° West 248 285 1,500  Level Houston Center
Mon 12:57:42 PM 29.7806 -95.2597 274° West 254 292 1,500  Level Houston Center
Mon 12:57:52 PM 29.8003 -95.2764 324° Northwest 248 285 1,500  Level Houston Center
Mon 12:58:44 PM 29.8322 -95.2372 47° Northeast 247 284 1,500  Level Houston Center
Mon 12:58:54 PM 29.8311 -95.2244 96° East 248 285 1,500  Level Houston Center
Mon 12:59:46 PM 29.8222 -95.1564 99° East 250 288 1,500 98 Level Houston Center
Mon 12:59:55 PM 29.8194 -95.1439 104° East 261 300 1,600 1,114 Climbing Houston Center
Mon 01:00:56 PM 29.8114 -95.0583 96° East 247 284 2,800 737 Climbing Houston Center
Mon 01:01:49 PM 29.8061 -94.9947 95° East 251 289 3,000 197 Climbing Houston Center
Mon 01:01:57 PM 29.8036 -94.9772 99° East 247 284 3,000  Level Houston Center
Mon 01:02:51 PM 29.7989 -94.9156 95° East 249 287 3,000  Level Houston Center
Mon 01:02:58 PM 29.7964 -94.8986 100° East 246 283 3,000 290 Level Houston Center
Mon 01:03:53 PM 29.7925 -94.8364 94° East 248 285 3,300 581 Climbing Houston Center
Mon 01:04:00 PM 29.7950 -94.8194 80° East 245 282 3,600 1,853 Climbing Houston Center
Mon 01:05:01 PM 29.8144 -94.7375 75° East 268 308 5,400 1,795 Climbing Houston Center
Mon 01:05:57 PM 29.8319 -94.6553 76° East 271 312 7,100 1,869 Climbing Houston Center
Mon 01:06:02 PM 29.8328 -94.6458 84° East 283 326 7,300 2,129 Climbing Houston Center
Mon 01:06:59 PM 29.8528 -94.5653 74° East 286 329 9,300 1,361 Climbing Houston Center
Mon 01:08:01 PM 29.8897 -94.4739 65° Northeast 315 362 10,000 435 Climbing Houston Center
Mon 01:09:03 PM 29.9269 -94.3847 64° Northeast 329 379 10,200 774 Climbing Houston Center
Mon 01:10:05 PM 29.9939 -94.3119 43° Northeast 380 437 11,600 1,500 Climbing Houston Center
Mon 01:11:07 PM 30.1014 -94.2625 22° Northeast 365 420 13,300 1,548 Climbing Houston Center
Mon 01:12:09 PM 30.1939 -94.2206 21° North 358 412 14,800 1,452 Climbing Houston Center
Mon 01:13:11 PM 30.2897 -94.1806 20° North 362 417 16,300 1,500 Climbing Houston Center
Mon 01:14:13 PM 30.3842 -94.1389 21° North 362 417 17,900 1,403 Climbing Houston Center
Mon 01:15:15 PM 30.4769 -94.0992 20° North 358 412 19,200 871 Climbing Houston Center
Mon 01:16:17 PM 30.5758 -94.0572 20° North 369 425 19,700 581 Climbing Houston Center
Mon 01:17:19 PM 30.6786 -94.0117 21° North 384 442 20,400 1,016 Climbing Houston Center
Mon 01:18:21 PM 30.8028 -93.9581 20° North 392 451 21,800 1,113 Climbing Houston Center
Mon 01:19:23 PM 30.9094 -93.9114 21° North 402 463 22,700 823 Climbing Houston Center
Mon 01:20:25 PM 31.0175 -93.8631 21° North 410 472 23,500 726 Climbing Houston Center
Mon 01:21:27 PM 31.1289 -93.8131 21° North 425 489 24,200 726 Climbing Houston Center
Mon 01:22:29 PM 31.2422 -93.7642 20° North 431 496 25,000 774 Climbing Houston Center
Mon 01:23:31 PM 31.3761 -93.7042 21° North 439 505 25,800 774 Climbing Houston Center
Mon 01:24:33 PM 31.4922 -93.6531 21° North 445 512 26,600 774 Climbing Houston Center
Mon 01:25:35 PM 31.6094 -93.6017 20° North 447 514 27,400 726 Climbing Houston Center
Mon 01:26:37 PM 31.7214 -93.5514 21° North 444 511 28,100 629 Climbing Houston Center
Mon 01:27:39 PM 31.8381 -93.4981 21° North 446 513 28,700 439 Climbing Houston Center
Mon 01:28:40 PM 31.9564 -93.4458 21° North 450 518 29,000 146 Climbing Houston Center
Mon 01:29:42 PM 32.1006 -93.3786 22° Northeast 460 529 29,000  Level Houston Center
Mon 01:30:28 PM 32.1931 -93.3311 23° Northeast 455 524 29,000  Level Fort Worth Center
Mon 01:31:28 PM 32.3167 -93.2789 20° North 460 529 29,000  Level Fort Worth Center
Mon 01:32:28 PM 32.4358 -93.2242 21° North 467 537 29,000  Level Fort Worth Center
Mon 01:33:28 PM 32.5614 -93.1667 21° North 467 537 29,000  Level Fort Worth Center
Mon 01:34:28 PM 32.6867 -93.1114 20° North 467 537 29,000  Level Fort Worth Center
Mon 01:35:28 PM 32.8122 -93.0533 21° North 467 537 29,000  Level Fort Worth Center
Mon 01:36:28 PM 32.9333 -92.9956 22° Northeast 467 537 29,000  Level Fort Worth Center
Mon 01:37:28 PM 33.0606 -92.9372 21° North 474 545 29,000  Level Fort Worth Center
Mon 01:38:28 PM 33.1900 -92.8808 20° North 479 551 29,000  Level Fort Worth Center
Mon 01:39:28 PM 33.3153 -92.8225 21° North 479 551 29,000  Level Fort Worth Center
Mon 01:41:51 PM 33.6169 -92.6844 21° North 495 570 29,000  Level Memphis Center
Mon 01:42:51 PM 33.7431 -92.6281 20° North 490 564 29,000  Level Memphis Center
Mon 01:43:51 PM 33.8714 -92.5689 21° North 490 564 29,000  Level Memphis Center
Mon 01:44:51 PM 33.9997 -92.5069 22° Northeast 490 564 29,000  Level Memphis Center
Mon 01:45:51 PM 34.1261 -92.4422 23° Northeast 496 571 29,000  Level Memphis Center
Mon 01:46:51 PM 34.2544 -92.3800 22° Northeast 491 565 29,000  Level Memphis Center
Mon 01:47:51 PM 34.3806 -92.3225 21° North 491 565 29,000  Level Memphis Center
Mon 01:48:51 PM 34.5089 -92.2625 21° North 491 565 29,000  Level Memphis Center
Mon 01:49:51 PM 34.6392 -92.1997 22° Northeast 491 565 29,000  Level Memphis Center
Mon 01:50:51 PM 34.7672 -92.1369 22° Northeast 491 565 29,000  Level Memphis Center
Mon 01:51:51 PM 34.8933 -92.0736 22° Northeast 496 571 29,000  Level Memphis Center
Mon 01:52:51 PM 35.0214 -92.0128 21° North 496 571 29,000  Level Memphis Center
Mon 01:53:51 PM 35.1475 -91.9519 22° Northeast 496 571 29,000  Level Memphis Center
Mon 01:54:51 PM 35.2669 -91.8931 22° Northeast 496 571 29,000  Level Memphis Center
Mon 01:55:51 PM 35.3950 -91.8292 22° Northeast 501 577 29,000  Level Memphis Center
Mon 01:56:51 PM 35.5231 -91.7678 21° North 501 577 29,000  Level Memphis Center
Mon 01:57:51 PM 35.6508 -91.7033 22° Northeast 495 570 29,000  Level Memphis Center
Mon 01:58:51 PM 35.7850 -91.6417 20° North 500 575 29,000  Level Memphis Center
Mon 01:59:51 PM 35.9131 -91.5744 23° Northeast 500 575 29,000  Level Memphis Center
Mon 02:00:51 PM 36.0344 -91.5119 23° Northeast 485 558 29,000  Level Memphis Center
Mon 02:01:51 PM 36.1686 -91.4469 21° North 491 565 29,000  Level Memphis Center
Mon 02:02:51 PM 36.2961 -91.3819 22° Northeast 496 571 29,000 -300 Level Memphis Center
Mon 02:03:51 PM 36.4258 -91.3189 21° North 496 571 28,400 -1,200 Descending Memphis Center
Mon 02:04:51 PM 36.5556 -91.2533 22° Northeast 502 578 26,600 -1,975 Descending Memphis Center
Mon 02:06:29 PM 36.7450 -91.1536 23° Northeast 466 536 23,200 -2,127 Descending Kansas City Center
Mon 02:07:29 PM 36.8644 -91.0914 23° Northeast 449 517 21,000 -2,083 Descending Kansas City Center
Mon 02:08:30 PM 36.9733 -91.0361 22° Northeast 432 497 19,000 -2,048 Descending Kansas City Center
Mon 02:09:35 PM 37.0917 -90.9750 22° Northeast 416 479 16,700 -2,095 Descending Kansas City Center
Mon 02:10:36 PM 37.1919 -90.9228 23° Northeast 402 463 14,600 -2,032 Descending Kansas City Center
Mon 02:11:39 PM 37.2897 -90.8725 22° Northeast 389 448 12,500 -1,839 Descending Kansas City Center
Mon 02:12:40 PM 37.3861 -90.8228 22° Northeast 380 437 10,800 -1,113 Descending Kansas City Center
Mon 02:13:43 PM 37.4728 -90.7761 23° Northeast 351 404 10,200 -976 Descending Kansas City Center
Mon 02:14:43 PM 37.5547 -90.7356 21° North 309 356 8,800 -1,306 Descending Kansas City Center
Mon 02:15:47 PM 37.6333 -90.6944 22° Northeast 306 352 7,500 -1,210 Descending Kansas City Center
Mon 02:16:47 PM 37.7092 -90.6533 23° Northeast 300 345 6,300 -1,113 Descending Kansas City Center
Mon 02:17:51 PM 37.7819 -90.6158 22° Northeast 289 333 5,200 -1,200 Descending Kansas City Center
Mon 02:18:52 PM 37.8667 -90.5714 22° Northeast 278 320 3,800 -1,258 Descending Kansas City Center
Mon 02:19:55 PM 37.9056 -90.6306 310° West 282 325 2,600 -919 Descending Kansas City Center
Mon 02:20:56 PM 37.8478 -90.6736 210° Southwest 259 298 1,900 -344 Descending Kansas City Center
Mon 02:21:57 PM 37.7822 -90.7242 211° Southwest 254 292 1,900 -15 Level Kansas City Center
Mon 02:23:00 PM 37.7107 -90.7981 219° Southwest  Level FlightAware Approximate
Mon 02:30:00 PM 37.2352 -90.9080 140° Southeast  Level FlightAware Approximate
Mon 02:31:00 PM 37.1677 -90.8370 140° Southeast  Level FlightAware Approximate
Mon 02:32:00 PM 37.0999 -90.7665 141° Southeast  Level FlightAware Approximate
Mon 02:33:00 PM 37.0312 -90.6977 141° Southeast  Level FlightAware Approximate
Mon 02:34:00 PM 36.9624 -90.6289 141° Southeast  Level FlightAware Approximate
Mon 02:35:00 PM 36.8936 -90.5602 141° Southeast  Level FlightAware Approximate
Mon 02:36:00 PM 36.8249 -90.4914 141° Southeast  Level FlightAware Approximate
Mon 02:37:00 PM 36.7562 -90.4227 141° Southeast  Level FlightAware Approximate
Mon 02:38:00 PM 36.6875 -90.3540 141° Southeast  Level FlightAware Approximate
Mon 02:39:00 PM 36.6189 -90.2852 141° Southeast  Level FlightAware Approximate
Mon 02:40:00 PM 36.5504 -90.2164 141° Southeast  Level FlightAware Approximate
Mon 02:41:00 PM 36.4818 -90.1478 141° Southeast  Level FlightAware Approximate
Mon 02:41:15 PM 36.7278 -90.4114 143° Southeast 274 315 1,600  Level Memphis Center
Mon 02:42:00 PM 36.4131 -90.0792 141° Southeast  Level FlightAware Approximate
Mon 02:42:15 PM 36.6714 -90.3517 140° Southeast 269 310 1,600  Level Memphis Center
Mon 02:43:00 PM 36.3445 -90.0109 141° Southeast  Level FlightAware Approximate
Mon 02:43:15 PM 36.6233 -90.2897 134° Southeast 257 296 1,600  Level Memphis Center
Mon 02:44:00 PM 36.2788 -89.9384 133° Southeast  Level FlightAware Approximate
Mon 02:44:15 PM 36.5672 -90.2303 140° Southeast 257 296 1,300  Level Memphis Center
Mon 02:45:00 PM 36.2136 -89.8658 143° Southeast  Level FlightAware Approximate
Mon 02:45:15 PM 36.5108 -90.1711 140° Southeast 263 303 1,400  Level Memphis Center
Mon 02:46:15 PM 36.4647 -90.1014 129° Southeast 263 303 1,300 -50 Descending Memphis Center
Mon 02:47:15 PM 36.4125 -90.0450 139° Southeast 256 295 1,300  Level Memphis Center
Mon 02:48:15 PM 36.3500 -90.0039 152° Southeast 256 295 1,300  Level Memphis Center
Mon 02:49:15 PM 36.2956 -89.9528 143° Southeast 256 295 1,300  Level Memphis Center
Mon 02:50:15 PM 36.2433 -89.8989 140° Southeast 256 295 1,300  Level Memphis Center
Mon 02:51:15 PM 36.1889 -89.8478 143° Southeast 251 289 1,300  Level Memphis Center
Mon 02:52:15 PM 36.1281 -89.8044 150° Southeast 251 289 1,300 350 Level Memphis Center
Mon 02:53:15 PM 36.0742 -89.8458 212° Southwest 210 242 2,000 650 Climbing Memphis Center
Mon 02:54:15 PM 36.0892 -89.9256 283° West 175 201 2,600 147 Climbing Memphis Center
Mon 02:56:39 PM 36.2853 -90.0119 340° North 158 182 2,500 -176 Descending Memphis Center
Mon 02:57:39 PM 36.3644 -90.0194 356° North 275 316 2,000 -750 Descending Memphis Center
Mon 02:58:39 PM 36.4333 -90.0344 350° North 270 311 1,000 -500 Descending Memphis Center
Mon 02:59:39 PM 36.4647 -90.0989 301° West 224 258 1,000 450 Level Memphis Center
Mon 03:00:39 PM 36.4669 -90.1789 272° West 202 232 1,900 400 Climbing Memphis Center
Mon 03:01:39 PM 36.4150 -90.1817 182° South 130 150 1,800 -100 Descending Memphis Center
Mon 03:02:39 PM 36.4189 -90.1017 87° East 108 124 1,700 -50 Descending Memphis Center
Mon 03:03:39 PM 36.4542 -90.0447 52° Northeast 159 183 1,700 250 Level Memphis Center
Mon 03:04:39 PM 36.4689 -90.1092 286° West 82 94 2,200 850 Climbing Memphis Center
Mon 03:05:39 PM 36.4483 -90.1842 251° West 137 158 3,400 150 Climbing Memphis Center
Mon 03:06:39 PM 36.4128 -90.2744 244° Southwest 218 251 2,500 -700 Descending Memphis Center
Mon 03:07:39 PM 36.3733 -90.3725 243° Southwest 285 328 2,000 -550 Descending Memphis Center
Mon 03:08:39 PM 36.3211 -90.4600 233° Southwest 302 348 1,400 -300 Descending Memphis Center
Mon 03:09:39 PM 36.2939 -90.5347 246° West 302 348 1,400 350 Level Memphis Center
Mon 03:10:39 PM 36.3064 -90.6144 281° West 244 281 2,100 750 Climbing Memphis Center
Mon 03:11:39 PM 36.3042 -90.6969 268° West 244 281 2,900 400 Climbing Memphis Center
Mon 03:12:39 PM 36.2747 -90.7792 246° West 250 288 2,900 -350 Level Memphis Center
Mon 03:13:39 PM 36.2225 -90.7558 160° South 178 205 2,200 -550 Descending Memphis Center
Mon 03:14:39 PM 36.2081 -90.7017 108° East 118 136 1,800 -375 Descending Memphis Center
Mon 03:16:03 PM 36.2564 -90.5217 72° East 275 316 1,300 -250 Descending Memphis Center
Mon 03:17:03 PM 36.3003 -90.5064 16° North 213 245 1,200 50 Descending Memphis Center
Mon 03:18:03 PM 36.3064 -90.5861 275° West 60 69 1,400 1,000 Climbing Memphis Center
Mon 03:19:03 PM 36.3250 -90.6583 288° West 152 175 3,200 1,300 Climbing Memphis Center
Mon 03:20:03 PM 36.3603 -90.7281 302° West 203 234 4,000 400 Climbing Memphis Center
Mon 03:21:03 PM 36.3997 -90.7978 305° West 236 272 4,000 550 Level Memphis Center
Mon 03:22:03 PM 36.4014 -90.8831 271° West 247 284 5,100 1,000 Climbing Memphis Center
Mon 03:23:03 PM 36.3492 -90.9497 226° Southwest 232 267 6,000 650 Climbing Memphis Center
Mon 03:24:03 PM 36.2842 -91.0083 216° Southwest 256 295 6,400 250 Climbing Memphis Center
Mon 03:25:03 PM 36.2089 -91.0542 206° Southwest 277 319 6,500 50 Climbing Memphis Center
Mon 03:26:03 PM 36.1253 -91.0919 200° South 301 346 6,500  Level Memphis Center
Mon 03:27:03 PM 36.0333 -91.1092 189° South 318 366 6,500 -800 Level Memphis Center
Mon 03:28:03 PM 35.9375 -91.1081 179° South 334 384 4,900 -1,550 Descending Memphis Center
Mon 03:29:03 PM 35.8372 -91.1175 184° South 334 384 3,400 -153 Descending Memphis Center
Mon 03:31:00 PM 35.8525 -91.3455 275° West  Level Estimated
Mon 03:35:15 PM 35.7825 -91.4675 274° West 276 318 3,800  Level Memphis Center
Mon 03:36:15 PM 35.8453 -91.4633 North 252 290 4,900 850 Climbing Memphis Center
Mon 03:37:15 PM 35.8811 -91.3919 58° Northeast 173 199 5,500 300 Climbing Memphis Center
Mon 03:38:00 PM 35.9038 -92.1645 275° West  Level Estimated
Mon 03:38:15 PM 35.9236 -91.3106 57° Northeast 228 262 5,500  Level Memphis Center
Mon 03:39:00 PM 35.9107 -92.2816 274° West  Level Estimated
Mon 03:39:15 PM 35.9658 -91.2367 55° Northeast 249 287 5,500  Level Memphis Center
Mon 03:40:00 PM 35.9175 -92.3987 274° West  Level Estimated
Mon 03:40:15 PM 35.9853 -91.1497 75° East 249 287 5,500  Level Memphis Center
Mon 03:41:15 PM 35.9942 -91.0575 83° East 254 292 5,500 -800 Level Memphis Center
Mon 03:42:15 PM 36.0050 -90.9650 82° East 265 305 3,900 -1,500 Descending Memphis Center
Mon 03:43:15 PM 35.9783 -90.8725 110° East 265 305 2,500 -900 Descending Memphis Center
Mon 03:44:15 PM 35.9703 -90.7750 96° East 265 305 2,100 125 Descending Memphis Center
Mon 03:46:00 PM 35.9831 -90.9741 275° West  Level Estimated
Mon 03:48:03 PM 36.0175 -90.9472 274° West 275 316 3,100  Level Memphis Center
Mon 03:49:03 PM 36.0192 -91.0525 271° West 275 316 3,000 66 Descending Memphis Center
Mon 03:51:00 PM 35.9631 -91.2641 252° West  Level FlightAware Approximate
Mon 03:53:00 PM 36.0312 -91.7712 274° West  Level Estimated
Mon 03:55:39 PM 36.0219 -90.8986 246° West 275 316 3,600  Level Memphis Center
Mon 03:56:39 PM 36.0214 -90.9883 270° West 269 310 3,800 -250 Climbing Memphis Center
Mon 03:57:39 PM 35.9650 -91.0367 215° Southwest 244 281 3,100 -600 Descending Memphis Center
Mon 03:58:00 PM 35.9217 -91.3029 246° West  Level FlightAware Approximate
Mon 03:58:39 PM 35.9297 -90.9953 136° Southeast 120 138 2,600  Level Memphis Center
Mon 03:59:00 PM 35.8837 -91.4069 246° West  Level FlightAware Approximate
Mon 04:00:00 PM 35.8457 -91.5107 246° West  Level FlightAware Approximate
Mon 04:00:00 PM 35.8856 -91.1393 249° West  Level FlightAware Approximate
Mon 04:03:39 PM 36.0178 -90.8806 249° West 276 318 3,300  Level Memphis Center
Mon 04:04:39 PM 36.0278 -90.9706 278° West 262 302 4,000 350 Climbing Memphis Center
Mon 04:05:39 PM 36.0294 -91.0578 271° West 257 296 4,000 150 Level Memphis Center
Mon 04:06:39 PM 36.0311 -91.1500 271° West 257 296 4,300 300 Climbing Memphis Center
Mon 04:07:00 PM 35.6541 -91.8834 249° West  Level FlightAware Approximate
Mon 04:07:39 PM 36.0344 -91.2450 273° West 264 304 4,600  Level Memphis Center
Mon 04:08:00 PM 35.6207 -91.9893 249° West  Level FlightAware Approximate
Mon 04:08:39 PM 36.0442 -91.3478 277° West 284 327 7,300  Level Memphis Center
Mon 04:09:00 PM 35.5872 -92.0952 249° West  Level FlightAware Approximate
Mon 04:09:39 PM 36.0475 -91.4481 272° West 303 349 10,200  Level Memphis Center
Mon 04:10:39 PM 36.0569 -91.5611 276° West 317 365 11,200 1,350 Climbing Memphis Center
Mon 04:11:39 PM 36.0389 -91.6867 260° West 331 381 12,900 2,050 Climbing Memphis Center
Mon 04:12:39 PM 36.0250 -91.8147 262° West 370 426 15,300 2,200 Climbing Memphis Center
Mon 04:13:39 PM 36.0256 -91.9483 270° West 386 444 17,300 1,800 Climbing Memphis Center
Mon 04:14:39 PM 36.0550 -92.0797 286° West 386 444 18,900 1,600 Climbing Memphis Center
Mon 04:15:39 PM 36.0783 -92.2008 283° West 397 457 20,500 1,600 Climbing Memphis Center
Mon 04:16:39 PM 36.0617 -92.3367 261° West 397 457 22,100 1,350 Climbing Memphis Center
Mon 04:17:39 PM 36.0428 -92.4747 260° West 404 465 23,200 1,300 Climbing Memphis Center
Mon 04:18:39 PM 36.0236 -92.6156 260° West 415 478 24,700 1,500 Climbing Memphis Center
Mon 04:19:39 PM 36.0083 -92.7561 262° West 415 478 26,200 1,400 Climbing Memphis Center
Mon 04:20:39 PM 35.9931 -92.8967 262° West 420 483 27,500 1,050 Climbing Memphis Center
Mon 04:21:39 PM 35.9756 -93.0347 261° West 420 483 28,300 700 Climbing Memphis Center
Mon 04:22:39 PM 35.9600 -93.1831 263° West 426 490 28,900 650 Climbing Memphis Center
Mon 04:23:39 PM 35.9439 -93.3286 262° West 432 497 29,600 550 Climbing Memphis Center
Mon 04:24:39 PM 35.9236 -93.4792 261° West 432 497 30,000 200 Climbing Memphis Center
Mon 04:25:39 PM 35.9053 -93.6244 261° West 442 509 30,000  Level Memphis Center
Mon 04:26:39 PM 35.8886 -93.7775 262° West 442 509 30,000  Level Memphis Center
Mon 04:27:39 PM 35.8700 -93.9253 261° West 442 509 30,000  Level Memphis Center
Mon 04:28:39 PM 35.8506 -94.0883 262° West 442 509 30,000  Level Memphis Center
Mon 04:29:39 PM 35.8333 -94.2386 262° West 442 509 30,000  Level Memphis Center
Mon 04:30:39 PM 35.8122 -94.3836 260° West 442 509 30,000  Level Memphis Center
Mon 04:31:39 PM 35.7950 -94.5286 262° West 442 509 30,000  Level Memphis Center
Mon 04:33:41 PM 35.7569 -94.8253 261° West 444 511 30,000  Level Fort Worth Center
Mon 04:34:41 PM 35.7369 -94.9717 260° West 444 511 30,000  Level Fort Worth Center
Mon 04:35:41 PM 35.7206 -95.1000 261° West 444 511 30,000  Level Fort Worth Center
Mon 04:36:41 PM 35.7003 -95.2461 260° West 444 511 30,000  Level Fort Worth Center
Mon 04:37:41 PM 35.6819 -95.3897 261° West 437 503 30,000  Level Fort Worth Center
Mon 04:38:41 PM 35.6633 -95.5333 261° West 432 497 30,000  Level Fort Worth Center
Mon 04:39:41 PM 35.6425 -95.6767 260° West 432 497 30,000  Level Fort Worth Center
Mon 04:40:41 PM 35.6233 -95.8178 261° West 432 497 30,000  Level Fort Worth Center
Mon 04:41:41 PM 35.6000 -95.9586 259° West 426 490 30,000  Level Fort Worth Center
Mon 04:42:41 PM 35.5808 -96.0992 261° West 426 490 30,000  Level Fort Worth Center
Mon 04:43:41 PM 35.5614 -96.2372 260° West 426 490 30,000  Level Fort Worth Center
Mon 04:44:41 PM 35.5417 -96.3778 260° West 426 490 30,000  Level Fort Worth Center
Mon 04:45:41 PM 35.5219 -96.5183 260° West 426 490 30,000  Level Fort Worth Center
Mon 04:46:41 PM 35.5000 -96.6564 259° West 426 490 30,000  Level Fort Worth Center
Mon 04:47:41 PM 35.4797 -96.7942 260° West 426 490 30,000  Level Fort Worth Center
Mon 04:48:41 PM 35.4594 -96.9319 260° West 426 490 30,000  Level Fort Worth Center
Mon 04:49:41 PM 35.4392 -97.0697 260° West 426 490 30,000  Level Fort Worth Center
Mon 04:50:41 PM 35.4228 -97.2122 262° West 426 490 30,000  Level Fort Worth Center
Mon 04:51:41 PM 35.4000 -97.3653 260° West 426 490 30,000  Level Fort Worth Center
Mon 04:52:41 PM 35.3769 -97.5028 258° West 426 490 30,000  Level Fort Worth Center
Mon 04:53:41 PM 35.3539 -97.6453 259° West 433 498 30,000  Level Fort Worth Center
Mon 04:54:41 PM 35.3347 -97.7800 260° West 420 483 30,000  Level Fort Worth Center
Mon 04:55:41 PM 35.3133 -97.9172 259° West 415 478 30,000  Level Fort Worth Center
Mon 04:56:41 PM 35.2939 -98.0569 260° West 410 472 30,000  Level Fort Worth Center
Mon 04:57:41 PM 35.2744 -98.1917 260° West 410 472 30,000  Level Fort Worth Center
Mon 04:58:41 PM 35.2547 -98.3289 260° West 410 472 30,000  Level Fort Worth Center
Mon 04:59:41 PM 35.2328 -98.4658 259° West 410 472 30,000  Level Fort Worth Center
Mon 05:00:41 PM 35.2150 -98.5978 261° West 404 465 30,000  Level Fort Worth Center
Mon 05:01:41 PM 35.1928 -98.7347 259° West 411 473 30,000  Level Fort Worth Center
Mon 05:02:41 PM 35.1703 -98.8739 259° West 411 473 30,000  Level Fort Worth Center
Mon 05:03:41 PM 35.1500 -99.0106 260° West 411 473 30,000  Level Fort Worth Center
Mon 05:04:41 PM 35.1292 -99.1472 259° West 411 473 30,000  Level Fort Worth Center
Mon 05:05:41 PM 35.1064 -99.2864 259° West 411 473 30,000  Level Fort Worth Center
Mon 05:06:41 PM 35.0878 -99.4053 259° West 411 473 30,000  Level Fort Worth Center
Mon 05:08:55 PM 35.0425 -99.6983 259° West 409 471 30,000  Level Albuquerque Center
Mon 05:09:56 PM 35.0214 -99.8347 259° West 408 470 30,000  Level Albuquerque Center
Mon 05:11:00 PM 34.9958 -99.9972 259° West 406 467 30,000  Level Albuquerque Center
Mon 05:12:00 PM 34.9733 -100.1308 258° West 402 463 30,000  Level Albuquerque Center
Mon 05:13:01 PM 34.9511 -100.2669 259° West 405 466 30,000  Level Albuquerque Center
Mon 05:14:05 PM 34.9256 -100.4167 258° West 410 472 30,000  Level Albuquerque Center
Mon 05:15:05 PM 34.9033 -100.5528 259° West 411 473 30,000  Level Albuquerque Center
Mon 05:16:06 PM 34.8797 -100.6894 258° West 412 474 30,000  Level Albuquerque Center
Mon 05:17:08 PM 34.8569 -100.8264 259° West 412 474 30,000  Level Albuquerque Center
Mon 05:18:11 PM 34.8333 -100.9639 258° West 414 476 30,000  Level Albuquerque Center
Mon 05:19:12 PM 34.8092 -101.1019 258° West 415 478 30,000  Level Albuquerque Center
Mon 05:20:16 PM 34.7847 -101.2389 258° West 414 476 30,000  Level Albuquerque Center
Mon 05:21:17 PM 34.7561 -101.4033 258° West 413 475 30,000  Level Albuquerque Center
Mon 05:22:19 PM 34.7308 -101.5411 257° West 415 478 30,000  Level Albuquerque Center
Mon 05:23:20 PM 34.7075 -101.6797 258° West 416 479 30,000  Level Albuquerque Center
Mon 05:24:25 PM 34.6817 -101.8203 257° West 422 486 30,000  Level Albuquerque Center
Mon 05:25:26 PM 34.6569 -101.9581 258° West 419 482 30,000  Level Albuquerque Center
Mon 05:26:27 PM 34.6322 -102.0961 258° West 418 481 30,000  Level Albuquerque Center
Mon 05:27:27 PM 34.6061 -102.2350 257° West 420 483 30,000  Level Albuquerque Center
Mon 05:28:30 PM 34.5814 -102.3758 258° West 424 488 30,000  Level Albuquerque Center
Mon 05:29:33 PM 34.5497 -102.5447 257° West 427 491 30,000  Level Albuquerque Center
Mon 05:30:34 PM 34.5228 -102.6931 258° West 431 496 30,000  Level Albuquerque Center
Mon 05:31:35 PM 34.4953 -102.8367 257° West 433 498 30,000  Level Albuquerque Center
Mon 05:32:36 PM 34.4892 -102.9728 267° West 427 491 30,000  Level Albuquerque Center
Mon 05:33:39 PM 34.4847 -103.1283 268° West 429 494 30,000  Level Albuquerque Center
Mon 05:34:41 PM 34.4797 -103.2717 268° West 425 489 30,000  Level Albuquerque Center
Mon 05:35:42 PM 34.4733 -103.4164 267° West 425 489 30,000  Level Albuquerque Center
Mon 05:36:45 PM 34.4692 -103.5614 268° West 427 491 30,000  Level Albuquerque Center
Mon 05:37:46 PM 34.4619 -103.7072 267° West 428 493 30,000  Level Albuquerque Center
Mon 05:38:49 PM 34.4564 -103.8517 267° West 426 490 30,000  Level Albuquerque Center
Mon 05:39:49 PM 34.4503 -103.9983 267° West 428 493 30,000  Level Albuquerque Center
Mon 05:40:50 PM 34.4425 -104.1697 267° West 430 495 30,000  Level Albuquerque Center
Mon 05:41:54 PM 34.4369 -104.3139 267° West 426 490 30,000  Level Albuquerque Center
Mon 05:42:54 PM 34.4306 -104.4583 267° West 425 489 30,000  Level Albuquerque Center
Mon 05:43:58 PM 34.4236 -104.6014 267° West 423 487 30,000  Level Albuquerque Center
Mon 05:44:59 PM 34.4158 -104.7478 266° West 427 491 30,000  Level Albuquerque Center
Mon 05:46:00 PM 34.4089 -104.8931 267° West 428 493 30,000  Level Albuquerque Center
Mon 05:47:01 PM 34.4014 -105.0367 266° West 425 489 30,000  Level Albuquerque Center
Mon 05:48:05 PM 34.3942 -105.1814 267° West 426 490 30,000  Level Albuquerque Center
Mon 05:49:06 PM 34.3872 -105.3286 267° West 430 495 30,000  Level Albuquerque Center
Mon 05:50:07 PM 34.3781 -105.4731 266° West 429 494 30,000  Level Albuquerque Center
Mon 05:51:11 PM 34.3689 -105.6436 266° West 430 495 30,000  Level Albuquerque Center
Mon 05:52:11 PM 34.3678 -105.7892 270° West 430 495 30,000  Level Albuquerque Center
Mon 05:53:12 PM 34.3761 -105.9375 274° West 434 499 30,000  Level Albuquerque Center
Mon 05:54:15 PM 34.3792 -106.0858 271° West 435 501 30,000  Level Albuquerque Center
Mon 05:55:16 PM 34.3828 -106.2281 272° West 436 502 30,000  Level Albuquerque Center
Mon 05:56:19 PM 34.3861 -106.3772 272° West 442 509 30,000  Level Albuquerque Center
Mon 05:57:21 PM 34.3906 -106.5486 272° West 436 502 30,000  Level Albuquerque Center
Mon 05:58:22 PM 34.3944 -106.6994 272° West 444 511 30,000  Level Albuquerque Center
Mon 05:59:25 PM 34.3975 -106.8478 271° West 443 510 30,000  Level Albuquerque Center
Mon 06:00:27 PM 34.4011 -107.0075 272° West 441 507 30,000  Level Albuquerque Center
Mon 06:01:27 PM 34.4050 -107.1556 272° West 441 507 30,000  Level Albuquerque Center
Mon 06:02:28 PM 34.4031 -107.2978 269° West 437 503 30,000  Level Albuquerque Center
Mon 06:03:31 PM 34.4081 -107.4494 272° West 442 509 30,000  Level Albuquerque Center
Mon 06:04:32 PM 34.4108 -107.5986 271° West 444 511 30,000  Level Albuquerque Center
Mon 06:05:33 PM 34.4114 -107.7475 270° West 442 509 30,000  Level Albuquerque Center
Mon 06:06:37 PM 34.4139 -107.8983 271° West 445 512 30,000  Level Albuquerque Center
Mon 06:07:37 PM 34.4156 -108.0486 271° West 446 513 30,000  Level Albuquerque Center
Mon 06:08:41 PM 34.4186 -108.2292 271° West 446 513 30,000  Level Albuquerque Center
Mon 06:09:41 PM 34.4200 -108.3792 271° West 446 513 30,000  Level Albuquerque Center
Mon 06:10:43 PM 34.4228 -108.5331 271° West 445 512 30,000  Level Albuquerque Center
Mon 06:11:46 PM 34.4494 -108.6697 283° West 438 504 30,000  Level Albuquerque Center
Mon 06:12:47 PM 34.4772 -108.8331 282° West 441 507 30,000  Level Albuquerque Center
Mon 06:13:48 PM 34.5008 -108.9717 282° West 440 506 30,000  Level Albuquerque Center
Mon 06:14:50 PM 34.5172 -109.1369 277° West 446 513 30,000  Level Albuquerque Center
Mon 06:15:55 PM 34.4503 -109.2647 238° Southwest 466 536 30,000  Level Albuquerque Center
Mon 06:16:55 PM 34.3825 -109.3936 238° Southwest 472 543 30,000  Level Albuquerque Center
Mon 06:17:56 PM 34.3067 -109.5436 239° Southwest 470 541 30,000  Level Albuquerque Center
Mon 06:18:57 PM 34.2542 -109.6828 245° Southwest 469 540 30,000  Level Albuquerque Center
Mon 06:19:58 PM 34.1897 -109.8414 244° Southwest 469 540 30,000  Level Albuquerque Center
Mon 06:21:02 PM 34.1333 -109.9750 243° Southwest 468 539 30,000  Level Albuquerque Center
Mon 06:22:02 PM 34.0769 -110.1094 243° Southwest 466 536 30,000  Level Albuquerque Center
Mon 06:23:05 PM 34.0183 -110.2497 243° Southwest 469 540 30,000  Level Albuquerque Center
Mon 06:24:06 PM 33.9206 -110.3978 232° Southwest 475 547 30,000  Level Albuquerque Center
Mon 06:25:10 PM 33.8353 -110.5239 231° Southwest 479 551 30,000  Level Albuquerque Center
Mon 06:26:10 PM 33.7472 -110.6467 229° Southwest 482 555 30,000  Level Albuquerque Center
Mon 06:27:12 PM 33.6761 -110.7778 237° Southwest 473 544 30,000  Level Albuquerque Center
Mon 06:28:15 PM 33.6403 -110.9278 254° West 465 535 30,000  Level Albuquerque Center
Mon 06:29:15 PM 33.6017 -111.0761 253° West 465 535 30,000  Level Albuquerque Center
Mon 06:30:17 PM 33.5611 -111.2242 252° West 466 536 30,000  Level Albuquerque Center
Mon 06:31:20 PM 33.5206 -111.3725 252° West 466 536 30,000  Level Albuquerque Center
Mon 06:32:21 PM 33.4794 -111.5200 252° West 465 535 30,000  Level Albuquerque Center
Mon 06:33:23 PM 33.4308 -111.6961 252° West 463 533 30,000  Level Albuquerque Center
Mon 06:34:23 PM 33.3897 -111.8444 252° West 466 536 30,000  Level Albuquerque Center
Mon 06:35:27 PM 33.3486 -111.9914 252° West 464 534 30,000  Level Albuquerque Center
Mon 06:36:28 PM 33.3078 -112.1378 252° West 463 533 30,000  Level Albuquerque Center
Mon 06:37:29 PM 33.2658 -112.2847 251° West 465 535 30,000  Level Albuquerque Center
Mon 06:38:30 PM 33.2239 -112.4308 251° West 465 535 30,000  Level Albuquerque Center
Mon 06:39:33 PM 33.1828 -112.5767 251° West 465 535 30,000 -48 Level Albuquerque Center
Mon 06:40:35 PM 33.1403 -112.7281 252° West 465 535 29,900 -48 Descending Albuquerque Center
Mon 06:41:37 PM 33.0994 -112.8742 252° West 466 536 29,900  Level Albuquerque Center
Mon 06:42:38 PM 33.0489 -113.0469 251° West 465 535 29,900 -1,033 Level Albuquerque Center
Mon 06:43:39 PM 33.0064 -113.1917 251° West 466 536 27,800 -2,304 Descending Albuquerque Center
Mon 06:44:43 PM 32.9658 -113.3331 251° West 463 533 25,100 -2,565 Descending Albuquerque Center
Mon 06:45:43 PM 32.9250 -113.4658 250° West 451 519 22,500 -2,607 Descending Albuquerque Center
Mon 06:46:45 PM 32.8883 -113.5928 251° West 427 491 19,800 -2,649 Descending Albuquerque Center
Mon 06:47:34 PM 32.8517 -113.7181 251° West 412 474 17,600 -2,451 Descending Los Angeles Center
Mon 06:47:56 PM 32.8403 -113.7567 251° West 390 449 16,900 -2,323 Descending Los Angeles Center
Mon 06:48:36 PM 32.8172 -113.8350 251° West 389 448 15,200 -2,600 Descending Los Angeles Center
Mon 06:48:56 PM 32.8028 -113.8814 250° West 374 430 14,300 -2,323 Descending Los Angeles Center
Mon 06:49:38 PM 32.7833 -113.9506 252° West 378 435 12,800 -2,459 Descending Los Angeles Center
Mon 06:49:57 PM 32.7739 -113.9961 256° West 372 428 11,800 -1,935 Descending Los Angeles Center
Mon 06:50:40 PM 32.7775 -114.0478 275° West 377 434 10,800 -1,377 Descending Los Angeles Center
Mon 06:50:58 PM 32.7758 -114.1147 268° West 358 412 10,400 -774 Descending Los Angeles Center
Mon 06:51:42 PM 32.7794 -114.1828 274° West 345 397 10,000 -700 Descending Los Angeles Center
Mon 06:51:58 PM 32.7828 -114.2269 275° West 305 351 9,700 -1,065 Descending Los Angeles Center
Mon 06:52:44 PM 32.7856 -114.2825 273° West 309 356 8,900 -1,279 Descending Los Angeles Center
Mon 06:52:59 PM 32.7864 -114.3222 271° West 291 335 8,400 -1,645 Descending Los Angeles Center
Mon 06:53:46 PM 32.7886 -114.3989 272° West 295 339 7,200 -1,500 Descending Los Angeles Center
Mon 06:53:59 PM 32.7892 -114.4256 271° West 291 335 6,900 -1,258 Descending Los Angeles Center
Mon 06:54:48 PM 32.7919 -114.4947 273° West 293 337 5,900 -1,279 Descending Los Angeles Center
Mon 06:55:00 PM 32.7922 -114.5186 271° West 291 335 5,600 -1,068 Descending Los Angeles Center
Mon 06:56:01 PM 32.7922 -114.6072 270° West 275 316 4,600 -1,140 Descending Los Angeles Center
Mon 06:57:01 PM 32.7842 -114.7006 264° West 265 305 3,300 -1,219 Descending Los Angeles Center
Mon 06:57:05 PM 32.7853 -114.6914 82° East 270 311 3,300 -1,273 Level Los Angeles Center
Mon 06:58:07 PM 32.7769 -114.7781 263° West 266 306 1,900 -1,016 Descending Los Angeles Center
Mon 06:59:09 PM 32.7650 -114.8811 262° West 264 304 1,200 -387 Descending Los Angeles Center
Mon 07:00:11 PM 32.7608 -114.9706 267° West 267 307 1,100 -48 Descending Los Angeles Center
Mon 07:01:13 PM 32.7581 -115.0600 268° West 269 310 1,100 48 Level Los Angeles Center
Mon 07:02:15 PM 32.7558 -115.1506 268° West 273 314 1,200  Climbing Los Angeles Center
Mon 07:03:17 PM 32.7547 -115.2350 269° West 266 306 1,100  Descending Los Angeles Center
Mon 07:04:18 PM 32.7553 -115.3200 270° West 262 302 1,200 -49 Climbing Los Angeles Center
Mon 07:05:20 PM 32.8153 -115.4014 311° West 271 312 1,000 -145 Descending Los Angeles Center
Mon 07:06:22 PM 32.8603 -115.4725 307° West 271 312 900 -48 Descending Los Angeles Center
Mon 07:07:24 PM 32.9061 -115.5414 308° West 270 311 900  Level Los Angeles Center
Mon 07:08:26 PM 32.9628 -115.5903 324° Northwest 262 302 900  Level Los Angeles Center
Mon 07:09:28 PM 33.0208 -115.6389 325° Northwest 257 296 900 -48 Level Los Angeles Center
Mon 07:10:30 PM 33.0800 -115.6897 324° Northwest 258 297 800 -48 Descending Los Angeles Center
Mon 07:11:32 PM 33.1508 -115.7506 324° Northwest 261 300 800  Level Los Angeles Center
Mon 07:12:34 PM 33.2108 -115.8011 325° Northwest 262 302 800  Level Los Angeles Center
Mon 07:13:36 PM 33.2711 -115.8519 325° Northwest 264 304 800 -48 Level Los Angeles Center
Mon 07:14:38 PM 33.3306 -115.9031 324° Northwest 265 305 700 -48 Descending Los Angeles Center
Mon 07:15:40 PM 33.3892 -115.9539 324° Northwest 264 304 700 19 Level Los Angeles Center
Mon 07:19:58 PM 33.6500 -116.1833 324° Northwest 269 310 800 56 Climbing Southern California TRACON
Mon 07:21:04 PM 33.7167 -116.2500 320° Northwest 265 305 1,000 143 Climbing Southern California TRACON
Mon 07:22:04 PM 33.7667 -116.3167 312° West 259 298 1,100 100 Climbing Southern California TRACON
Mon 07:23:04 PM 33.8167 -116.3833 312° West 286 329 1,200 316 Climbing Southern California TRACON
Mon 07:23:58 PM 33.8667 -116.4500 312° West 267 307 1,700 421 Climbing Southern California TRACON
Mon 07:24:58 PM 33.9000 -116.5167 301° West 264 304 2,000 250 Climbing Southern California TRACON
Mon 07:25:58 PM 33.9167 -116.6167 281° West 284 327 2,200 450 Climbing Southern California TRACON
Mon 07:26:58 PM 33.9333 -116.7000 284° West 268 308 2,900 368 Climbing Southern California TRACON
Mon 07:27:52 PM 33.9333 -116.7833 270° West 268 308 2,900 186 Level Southern California TRACON
Mon 07:30:44 PM 33.9986 -117.0222 288° West 293 337 3,600 51 Climbing Los Angeles Center
Mon 07:31:46 PM 34.0558 -117.1003 312° West 263 303 3,100 -387 Descending Los Angeles Center
Mon 07:32:48 PM 34.0608 -117.1639 275° West 247 284 2,800 -484 Descending Los Angeles Center
Mon 07:33:50 PM 34.0572 -117.2703 268° West 257 296 2,100 -384 Descending Los Angeles Center
Mon 07:34:53 PM 34.0500 -117.3667 265° West 260 299 2,000 -47 Descending Southern California TRACON
Mon 07:35:58 PM 34.0500 -117.4667 270° West 256 295 2,000  Level Southern California TRACON
Mon 07:36:58 PM 34.0500 -117.5500 270° West 259 298 2,000  Level Southern California TRACON
Mon 07:37:53 PM 34.0500 -117.6333 270° West 259 298 2,000  Level Southern California TRACON
Mon 07:38:53 PM 34.0667 -117.7167 284° West 252 290 2,000 50 Level Southern California TRACON
Mon 07:39:53 PM 34.0833 -117.8000 284° West 252 290 2,100  Climbing Southern California TRACON
Mon 07:40:53 PM 34.0833 -117.8833 270° West 259 298 2,000 -381 Descending Southern California TRACON
Mon 07:41:59 PM 34.0833 -117.9667 270° West 243 280 1,300 -333 Descending Southern California TRACON
Mon 07:42:59 PM 34.0667 -118.0500 256° West 237 273 1,300 474 Level Southern California TRACON
Mon 07:43:53 PM 34.0833 -118.1167 287° West 257 296 2,200 1,850 Climbing Southern California TRACON
Mon 07:45:12 PM 34.1864 -118.1167 360° North 274 315 5,400 2,766 Climbing Los Angeles Center
Mon 07:46:14 PM 34.2642 -118.1058 North 280 322 8,700 2,226 Climbing Los Angeles Center
Mon 07:47:16 PM 34.3475 -118.0964 North 297 342 10,000 677 Climbing Los Angeles Center
Mon 07:48:18 PM 34.4306 -118.0539 23° Northeast 301 346 10,100 48 Climbing Los Angeles Center
Mon 07:49:20 PM 34.5117 -118.0247 17° North 305 351 10,100  Level Los Angeles Center
Mon 07:50:22 PM 34.5936 -117.9983 15° North 306 352 10,100  Level Los Angeles Center
Mon 07:51:24 PM 34.6750 -117.9681 17° North 307 353 10,100 -48 Level Los Angeles Center
Mon 07:52:26 PM 34.7728 -117.9328 17° North 305 351 10,000 -194 Descending Los Angeles Center
Mon 07:53:28 PM 34.8553 -117.9092 13° North 304 350 9,700 -484 Descending Los Angeles Center
Mon 07:54:30 PM 34.9375 -117.8858 13° North 303 349 9,000 -774 Descending Los Angeles Center
Mon 07:55:32 PM 34.9944 -117.8311 38° Northeast 280 322 8,100 -968 Descending Los Angeles Center
Mon 07:56:34 PM 34.9933 -117.7442 91° East 270 311 7,000 -920 Descending Los Angeles Center
Mon 07:57:49 PM 34.9386 -117.6944 143° Southeast 265 305 6,000 -1,007 Descending Los Angeles Center
Mon 07:59:03 PM 34.8567 -117.6569 159° South 249 287 4,500 -657 Descending Los Angeles Center
Mon 08:00:06 PM 34.8969 -117.5969 51° Northeast 232 267 4,500  Level Los Angeles Center
Mon 08:01:08 PM 34.9400 -117.6486 315° West 226 260 4,500 -97 Level Los Angeles Center
Mon 08:02:10 PM 34.9686 -117.7161 297° West 221 254 4,300 -484 Descending Los Angeles Center
Mon 08:03:12 PM 34.9561 -117.7839 257° West 214 246 3,500 -774 Descending Los Angeles Center
Mon 08:04:14 PM 34.9269 -117.8422 239° Southwest 207 238 2,700 -97 Descending Los Angeles Center
Mon 08:05:16 PM 34.8906 -117.9133 238° Southwest 206 237 3,300 677 Climbing Los Angeles Center
Mon 08:06:18 PM 34.8328 -117.9433 203° Southwest 234 269 4,100 435 Climbing Los Angeles Center
Mon 08:07:20 PM 34.7697 -117.9661 197° South 237 273 4,200  Climbing Los Angeles Center
Mon 08:08:22 PM 34.7089 -117.9900 198° South 235 270 4,100 -387 Descending Los Angeles Center
Mon 08:09:24 PM 34.6639 -118.0208 209° Southwest 206 237 3,400 -774 Descending Los Angeles Center
Mon 08:10:26 PM 34.6319 -118.0689 231° Southwest 167 192 2,500 -435 Descending Los Angeles Center
Mon 08:11:28 PM 34.6217 -118.0856 233° Southwest 93 107 2,500  Level Los Angeles Center
Mon 08:12:30 PM 34.6225 -118.0867 312° West 75 86 2,500  Level Los Angeles Center

Login

Don't have an account? Register now (free) for customized features, flight alerts, and more!